sensor_id;sensor_type;location;lat;lon;timestamp;pressure;altitude;pressure_sealevel;temperature;humidity
8653;BME280;4364;52.426;9.424;2023-02-17T00:01:21;101307.13;;;7.75;100.00
8653;BME280;4364;52.426;9.424;2023-02-17T00:03:49;101312.06;;;7.78;100.00
8653;BME280;4364;52.426;9.424;2023-02-17T00:06:19;101300.66;;;7.76;100.00
8653;BME280;4364;52.426;9.424;2023-02-17T00:08:46;101299.63;;;7.77;100.00
8653;BME280;4364;52.426;9.424;2023-02-17T00:11:13;101309.13;;;7.79;100.00
8653;BME280;4364;52.426;9.424;2023-02-17T00:13:40;101309.69;;;7.82;100.00
8653;BME280;4364;52.426;9.424;2023-02-17T00:16:09;101304.28;;;7.82;100.00
8653;BME280;4364;52.426;9.424;2023-02-17T00:18:36;101303.72;;;7.79;100.00
8653;BME280;4364;52.426;9.424;2023-02-17T00:21:11;101295.44;;;7.86;100.00
8653;BME280;4364;52.426;9.424;2023-02-17T00:23:38;101305.59;;;7.79;100.00
8653;BME280;4364;52.426;9.424;2023-02-17T00:26:05;101311.78;;;7.91;100.00
8653;BME280;4364;52.426;9.424;2023-02-17T00:28:32;101307.34;;;7.85;100.00
8653;BME280;4364;52.426;9.424;2023-02-17T00:31:14;101306.09;;;7.93;100.00
8653;BME280;4364;52.426;9.424;2023-02-17T00:33:41;101308.66;;;8.00;100.00
8653;BME280;4364;52.426;9.424;2023-02-17T00:36:11;101302.34;;;7.94;100.00
8653;BME280;4364;52.426;9.424;2023-02-17T00:38:38;101303.56;;;7.86;100.00
8653;BME280;4364;52.426;9.424;2023-02-17T00:41:04;101299.63;;;7.94;100.00
8653;BME280;4364;52.426;9.424;2023-02-17T00:43:31;101295.75;;;7.90;100.00
8653;BME280;4364;52.426;9.424;2023-02-17T00:45:57;101300.38;;;7.89;100.00
8653;BME280;4364;52.426;9.424;2023-02-17T00:48:24;101296.22;;;7.98;100.00
8653;BME280;4364;52.426;9.424;2023-02-17T00:50:51;101286.44;;;7.97;100.00
8653;BME280;4364;52.426;9.424;2023-02-17T00:53:17;101292.16;;;8.01;100.00
8653;BME280;4364;52.426;9.424;2023-02-17T00:55:44;101290.47;;;8.12;100.00
8653;BME280;4364;52.426;9.424;2023-02-17T00:58:11;101288.50;;;8.07;100.00
8653;BME280;4364;52.426;9.424;2023-02-17T01:00:37;101286.09;;;8.11;100.00
8653;BME280;4364;52.426;9.424;2023-02-17T01:03:04;101297.75;;;8.11;100.00
8653;BME280;4364;52.426;9.424;2023-02-17T01:05:30;101291.75;;;8.09;100.00
8653;BME280;4364;52.426;9.424;2023-02-17T01:07:57;101290.38;;;8.24;100.00
8653;BME280;4364;52.426;9.424;2023-02-17T01:10:23;101295.13;;;8.16;100.00
8653;BME280;4364;52.426;9.424;2023-02-17T01:12:50;101280.19;;;8.14;100.00
8653;BME280;4364;52.426;9.424;2023-02-17T01:15:20;101282.50;;;8.22;100.00
8653;BME280;4364;52.426;9.424;2023-02-17T01:17:48;101279.53;;;8.24;100.00
8653;BME280;4364;52.426;9.424;2023-02-17T01:20:15;101280.03;;;8.21;100.00
8653;BME280;4364;52.426;9.424;2023-02-17T01:22:41;101270.81;;;8.22;100.00
8653;BME280;4364;52.426;9.424;2023-02-17T01:25:07;101271.66;;;8.22;100.00
8653;BME280;4364;52.426;9.424;2023-02-17T01:27:34;101266.25;;;8.22;100.00
8653;BME280;4364;52.426;9.424;2023-02-17T01:30:01;101255.97;;;8.24;100.00
8653;BME280;4364;52.426;9.424;2023-02-17T01:32:28;101251.63;;;8.23;100.00
8653;BME280;4364;52.426;9.424;2023-02-17T01:34:54;101247.69;;;8.31;100.00
8653;BME280;4364;52.426;9.424;2023-02-17T01:37:21;101239.53;;;8.31;100.00
8653;BME280;4364;52.426;9.424;2023-02-17T01:39:48;101241.25;;;8.20;100.00
8653;BME280;4364;52.426;9.424;2023-02-17T01:42:16;101230.34;;;8.32;100.00
8653;BME280;4364;52.426;9.424;2023-02-17T01:47:53;101231.16;;;8.32;100.00
8653;BME280;4364;52.426;9.424;2023-02-17T01:50:25;101223.22;;;8.26;100.00
8653;BME280;4364;52.426;9.424;2023-02-17T01:52:55;101220.56;;;8.31;100.00
8653;BME280;4364;52.426;9.424;2023-02-17T01:55:24;101220.41;;;8.38;100.00
8653;BME280;4364;52.426;9.424;2023-02-17T01:57:53;101217.53;;;8.44;100.00
8653;BME280;4364;52.426;9.424;2023-02-17T02:00:25;101224.41;;;8.35;100.00
8653;BME280;4364;52.426;9.424;2023-02-17T02:02:53;101220.72;;;8.41;100.00
8653;BME280;4364;52.426;9.424;2023-02-17T02:05:20;101201.44;;;8.38;100.00
8653;BME280;4364;52.426;9.424;2023-02-17T02:07:48;101211.31;;;8.44;100.00
8653;BME280;4364;52.426;9.424;2023-02-17T02:10:18;101209.41;;;8.44;100.00
8653;BME280;4364;52.426;9.424;2023-02-17T02:12:45;101202.81;;;8.40;100.00
8653;BME280;4364;52.426;9.424;2023-02-17T02:15:14;101209.81;;;8.36;100.00
8653;BME280;4364;52.426;9.424;2023-02-17T02:34:04;101192.81;;;8.41;100.00
8653;BME280;4364;52.426;9.424;2023-02-17T02:36:59;101182.94;;;8.51;100.00
8653;BME280;4364;52.426;9.424;2023-02-17T02:39:29;101170.13;;;8.47;100.00
8653;BME280;4364;52.426;9.424;2023-02-17T02:42:01;101173.94;;;8.46;100.00
8653;BME280;4364;52.426;9.424;2023-02-17T02:44:30;101159.88;;;8.49;100.00
8653;BME280;4364;52.426;9.424;2023-02-17T02:47:39;101170.22;;;8.52;100.00
8653;BME280;4364;52.426;9.424;2023-02-17T02:49:51;101155.22;;;8.44;100.00
8653;BME280;4364;52.426;9.424;2023-02-17T02:57:55;101139.00;;;8.49;100.00
8653;BME280;4364;52.426;9.424;2023-02-17T03:00:47;101143.38;;;8.50;100.00
8653;BME280;4364;52.426;9.424;2023-02-17T03:04:03;101149.34;;;8.52;100.00
8653;BME280;4364;52.426;9.424;2023-02-17T03:06:41;101140.53;;;8.62;100.00
8653;BME280;4364;52.426;9.424;2023-02-17T03:09:13;101149.09;;;8.54;100.00
8653;BME280;4364;52.426;9.424;2023-02-17T03:11:40;101149.47;;;8.63;100.00
8653;BME280;4364;52.426;9.424;2023-02-17T03:14:13;101150.47;;;8.57;100.00
8653;BME280;4364;52.426;9.424;2023-02-17T03:16:41;101137.88;;;8.67;100.00
8653;BME280;4364;52.426;9.424;2023-02-17T03:19:09;101143.59;;;8.71;100.00
8653;BME280;4364;52.426;9.424;2023-02-17T03:21:42;101145.50;;;8.70;100.00
8653;BME280;4364;52.426;9.424;2023-02-17T03:24:10;101138.38;;;8.64;100.00
8653;BME280;4364;52.426;9.424;2023-02-17T03:26:36;101142.41;;;8.62;100.00
8653;BME280;4364;52.426;9.424;2023-02-17T03:29:03;101146.50;;;8.64;100.00
8653;BME280;4364;52.426;9.424;2023-02-17T03:31:29;101137.81;;;8.62;100.00
8653;BME280;4364;52.426;9.424;2023-02-17T03:33:57;101137.69;;;8.74;100.00
8653;BME280;4364;52.426;9.424;2023-02-17T03:36:23;101139.34;;;8.80;100.00
8653;BME280;4364;52.426;9.424;2023-02-17T03:38:50;101119.25;;;8.76;100.00
8653;BME280;4364;52.426;9.424;2023-02-17T03:41:17;101111.94;;;8.77;100.00
8653;BME280;4364;52.426;9.424;2023-02-17T03:43:43;101113.53;;;8.73;100.00
8653;BME280;4364;52.426;9.424;2023-02-17T03:46:11;101111.63;;;8.73;100.00
8653;BME280;4364;52.426;9.424;2023-02-17T03:48:38;101119.31;;;8.81;100.00
8653;BME280;4364;52.426;9.424;2023-02-17T03:53:38;101112.25;;;8.80;100.00
8653;BME280;4364;52.426;9.424;2023-02-17T03:56:05;101109.47;;;8.75;100.00
8653;BME280;4364;52.426;9.424;2023-02-17T03:58:32;101105.09;;;8.69;100.00
8653;BME280;4364;52.426;9.424;2023-02-17T04:00:59;101106.47;;;8.71;100.00
8653;BME280;4364;52.426;9.424;2023-02-17T04:03:26;101102.69;;;8.73;100.00
8653;BME280;4364;52.426;9.424;2023-02-17T04:05:52;101096.97;;;8.69;100.00
8653;BME280;4364;52.426;9.424;2023-02-17T04:08:20;101110.88;;;8.78;100.00
8653;BME280;4364;52.426;9.424;2023-02-17T04:10:55;101106.22;;;8.73;100.00
8653;BME280;4364;52.426;9.424;2023-02-17T04:13:22;101104.59;;;8.72;100.00
8653;BME280;4364;52.426;9.424;2023-02-17T04:15:49;101102.88;;;8.66;100.00
8653;BME280;4364;52.426;9.424;2023-02-17T04:18:17;101110.22;;;8.65;100.00
8653;BME280;4364;52.426;9.424;2023-02-17T04:20:44;101107.81;;;8.69;100.00
8653;BME280;4364;52.426;9.424;2023-02-17T04:23:12;101107.56;;;8.70;100.00
8653;BME280;4364;52.426;9.424;2023-02-17T04:25:40;101111.63;;;8.73;100.00
8653;BME280;4364;52.426;9.424;2023-02-17T04:28:08;101116.00;;;8.74;100.00
8653;BME280;4364;52.426;9.424;2023-02-17T04:30:35;101101.34;;;8.75;100.00
8653;BME280;4364;52.426;9.424;2023-02-17T04:33:02;101094.06;;;8.76;100.00
8653;BME280;4364;52.426;9.424;2023-02-17T04:35:29;101082.41;;;8.80;100.00
8653;BME280;4364;52.426;9.424;2023-02-17T04:37:55;101082.41;;;8.80;100.00
8653;BME280;4364;52.426;9.424;2023-02-17T04:40:22;101086.72;;;8.76;100.00
8653;BME280;4364;52.426;9.424;2023-02-17T04:42:48;101073.63;;;8.68;100.00
8653;BME280;4364;52.426;9.424;2023-02-17T04:45:15;101077.19;;;8.74;100.00
8653;BME280;4364;52.426;9.424;2023-02-17T04:47:42;101067.19;;;8.74;100.00
8653;BME280;4364;52.426;9.424;2023-02-17T04:50:09;101070.66;;;8.69;100.00
8653;BME280;4364;52.426;9.424;2023-02-17T04:52:35;101062.31;;;8.76;100.00
8653;BME280;4364;52.426;9.424;2023-02-17T04:55:03;101069.94;;;8.79;100.00
8653;BME280;4364;52.426;9.424;2023-02-17T04:57:30;101070.25;;;8.83;100.00
8653;BME280;4364;52.426;9.424;2023-02-17T04:59:56;101066.44;;;8.79;100.00
8653;BME280;4364;52.426;9.424;2023-02-17T05:02:23;101080.00;;;8.79;100.00
8653;BME280;4364;52.426;9.424;2023-02-17T05:04:52;101052.53;;;8.75;100.00
8653;BME280;4364;52.426;9.424;2023-02-17T05:07:19;101062.31;;;8.76;100.00
8653;BME280;4364;52.426;9.424;2023-02-17T05:09:46;101052.34;;;8.82;100.00
8653;BME280;4364;52.426;9.424;2023-02-17T05:12:13;101045.25;;;8.76;100.00
8653;BME280;4364;52.426;9.424;2023-02-17T05:14:39;101056.75;;;8.88;100.00
8653;BME280;4364;52.426;9.424;2023-02-17T05:17:06;101049.38;;;8.83;100.00
8653;BME280;4364;52.426;9.424;2023-02-17T05:19:32;101052.38;;;8.87;100.00
8653;BME280;4364;52.426;9.424;2023-02-17T05:21:59;101054.03;;;8.88;100.00
8653;BME280;4364;52.426;9.424;2023-02-17T05:24:26;101048.34;;;8.89;100.00
8653;BME280;4364;52.426;9.424;2023-02-17T05:26:52;101047.84;;;8.93;100.00
8653;BME280;4364;52.426;9.424;2023-02-17T05:29:19;101053.25;;;8.93;100.00
8653;BME280;4364;52.426;9.424;2023-02-17T05:31:45;101039.75;;;8.98;100.00
8653;BME280;4364;52.426;9.424;2023-02-17T05:34:12;101034.88;;;9.00;100.00
8653;BME280;4364;52.426;9.424;2023-02-17T05:36:39;101037.53;;;8.95;100.00
8653;BME280;4364;52.426;9.424;2023-02-17T05:39:05;101036.00;;;9.04;100.00
8653;BME280;4364;52.426;9.424;2023-02-17T05:41:32;101021.00;;;8.96;100.00
8653;BME280;4364;52.426;9.424;2023-02-17T05:43:58;101028.22;;;9.13;100.00
8653;BME280;4364;52.426;9.424;2023-02-17T05:46:24;101011.66;;;9.14;100.00
8653;BME280;4364;52.426;9.424;2023-02-17T05:48:51;101013.03;;;9.17;100.00
8653;BME280;4364;52.426;9.424;2023-02-17T05:51:18;101005.41;;;9.14;100.00
8653;BME280;4364;52.426;9.424;2023-02-17T05:53:44;101001.94;;;9.18;100.00
8653;BME280;4364;52.426;9.424;2023-02-17T05:56:11;101010.06;;;9.18;100.00
8653;BME280;4364;52.426;9.424;2023-02-17T05:58:37;100996.25;;;9.20;100.00
8653;BME280;4364;52.426;9.424;2023-02-17T06:01:08;100996.75;;;9.17;100.00
8653;BME280;4364;52.426;9.424;2023-02-17T06:03:35;101008.44;;;9.17;100.00
8653;BME280;4364;52.426;9.424;2023-02-17T06:06:01;101009.81;;;9.20;100.00
8653;BME280;4364;52.426;9.424;2023-02-17T06:08:28;100998.94;;;9.20;100.00
8653;BME280;4364;52.426;9.424;2023-02-17T06:10:54;101003.06;;;9.22;100.00
8653;BME280;4364;52.426;9.424;2023-02-17T06:13:21;101008.69;;;9.16;100.00
8653;BME280;4364;52.426;9.424;2023-02-17T06:15:47;101016.41;;;9.29;100.00
8653;BME280;4364;52.426;9.424;2023-02-17T06:18:14;101018.28;;;9.28;100.00
8653;BME280;4364;52.426;9.424;2023-02-17T06:20:41;100999.59;;;9.32;100.00
8653;BME280;4364;52.426;9.424;2023-02-17T06:23:07;101004.97;;;9.27;100.00
8653;BME280;4364;52.426;9.424;2023-02-17T06:25:34;101002.88;;;9.34;100.00
8653;BME280;4364;52.426;9.424;2023-02-17T06:28:01;100994.97;;;9.33;100.00
8653;BME280;4364;52.426;9.424;2023-02-17T06:30:27;100994.44;;;9.31;100.00
8653;BME280;4364;52.426;9.424;2023-02-17T06:32:54;100998.97;;;9.25;100.00
8653;BME280;4364;52.426;9.424;2023-02-17T06:35:20;100994.44;;;9.31;100.00
8653;BME280;4364;52.426;9.424;2023-02-17T06:37:47;100988.19;;;9.35;100.00
8653;BME280;4364;52.426;9.424;2023-02-17T06:40:14;100992.59;;;9.41;100.00
8653;BME280;4364;52.426;9.424;2023-02-17T06:42:40;100992.03;;;9.39;100.00
8653;BME280;4364;52.426;9.424;2023-02-17T06:45:07;100987.41;;;9.40;99.49
8653;BME280;4364;52.426;9.424;2023-02-17T06:47:34;101002.13;;;9.44;98.99
8653;BME280;4364;52.426;9.424;2023-02-17T06:50:03;101003.19;;;9.43;98.73
8653;BME280;4364;52.426;9.424;2023-02-17T06:52:30;101003.19;;;9.43;98.50
8653;BME280;4364;52.426;9.424;2023-02-17T06:54:57;100995.00;;;9.38;98.18
8653;BME280;4364;52.426;9.424;2023-02-17T06:57:23;101001.28;;;9.43;97.16
8653;BME280;4364;52.426;9.424;2023-02-17T06:59:50;100986.88;;;9.38;98.38
8653;BME280;4364;52.426;9.424;2023-02-17T07:02:16;100997.75;;;9.43;97.75
8653;BME280;4364;52.426;9.424;2023-02-17T07:04:43;100993.94;;;9.39;98.37
8653;BME280;4364;52.426;9.424;2023-02-17T07:07:10;100986.59;;;9.39;97.59
8653;BME280;4364;52.426;9.424;2023-02-17T07:09:37;100995.31;;;9.41;97.38
8653;BME280;4364;52.426;9.424;2023-02-17T07:12:04;101002.38;;;9.42;97.36
8653;BME280;4364;52.426;9.424;2023-02-17T07:14:32;100996.13;;;9.47;97.79
8653;BME280;4364;52.426;9.424;2023-02-17T07:17:00;100965.22;;;9.48;97.23
8653;BME280;4364;52.426;9.424;2023-02-17T07:19:27;100963.28;;;9.43;97.86
8653;BME280;4364;52.426;9.424;2023-02-17T07:21:53;100960.84;;;9.47;98.25
8653;BME280;4364;52.426;9.424;2023-02-17T07:24:20;100962.53;;;9.53;98.41
8653;BME280;4364;52.426;9.424;2023-02-17T07:26:47;100960.03;;;9.46;98.93
8653;BME280;4364;52.426;9.424;2023-02-17T07:29:13;100938.63;;;9.50;98.47
8653;BME280;4364;52.426;9.424;2023-02-17T07:31:40;100928.03;;;9.54;98.29
8653;BME280;4364;52.426;9.424;2023-02-17T07:34:06;100945.69;;;9.51;98.12
8653;BME280;4364;52.426;9.424;2023-02-17T07:36:33;100950.63;;;9.59;97.38
8653;BME280;4364;52.426;9.424;2023-02-17T07:38:59;100943.53;;;9.53;98.04
8653;BME280;4364;52.426;9.424;2023-02-17T07:41:29;100932.13;;;9.51;98.71
8653;BME280;4364;52.426;9.424;2023-02-17T07:44:06;100929.66;;;9.50;99.18
8653;BME280;4364;52.426;9.424;2023-02-17T07:46:33;100920.72;;;9.49;99.71
8653;BME280;4364;52.426;9.424;2023-02-17T07:48:59;100940.25;;;9.51;99.70
8653;BME280;4364;52.426;9.424;2023-02-17T07:51:26;100943.25;;;9.55;99.68
8653;BME280;4364;52.426;9.424;2023-02-17T07:53:53;100947.38;;;9.62;99.03
8653;BME280;4364;52.426;9.424;2023-02-17T07:56:20;100952.81;;;9.62;99.41
8653;BME280;4364;52.426;9.424;2023-02-17T07:58:47;100944.66;;;9.62;99.49
8653;BME280;4364;52.426;9.424;2023-02-17T08:01:16;100942.75;;;9.63;99.17
8653;BME280;4364;52.426;9.424;2023-02-17T08:03:44;100944.41;;;9.64;99.58
8653;BME280;4364;52.426;9.424;2023-02-17T08:06:16;100940.06;;;9.68;99.17
8653;BME280;4364;52.426;9.424;2023-02-17T08:08:44;100948.75;;;9.70;99.11
8653;BME280;4364;52.426;9.424;2023-02-17T08:11:30;100941.47;;;9.76;99.09
8653;BME280;4364;52.426;9.424;2023-02-17T08:14:15;100950.66;;;9.70;99.98
8653;BME280;4364;52.426;9.424;2023-02-17T08:16:42;100936.56;;;9.73;100.00
8653;BME280;4364;52.426;9.424;2023-02-17T08:19:08;100930.84;;;9.69;100.00
8653;BME280;4364;52.426;9.424;2023-02-17T08:21:35;100942.53;;;9.75;100.00
8653;BME280;4364;52.426;9.424;2023-02-17T08:24:01;100923.25;;;9.76;100.00
8653;BME280;4364;52.426;9.424;2023-02-17T08:26:28;100931.69;;;9.80;100.00
8653;BME280;4364;52.426;9.424;2023-02-17T08:28:55;100934.94;;;9.77;100.00
8653;BME280;4364;52.426;9.424;2023-02-17T08:31:24;100926.53;;;9.78;100.00
8653;BME280;4364;52.426;9.424;2023-02-17T08:33:51;100922.19;;;9.77;100.00
8653;BME280;4364;52.426;9.424;2023-02-17T08:36:19;100915.91;;;9.77;100.00
8653;BME280;4364;52.426;9.424;2023-02-17T08:38:48;100905.06;;;9.77;100.00
8653;BME280;4364;52.426;9.424;2023-02-17T08:43:42;100903.47;;;9.81;100.00
8653;BME280;4364;52.426;9.424;2023-02-17T08:46:10;100898.28;;;9.79;100.00
8653;BME280;4364;52.426;9.424;2023-02-17T08:48:39;100904.25;;;9.76;100.00
8653;BME280;4364;52.426;9.424;2023-02-17T08:51:05;100891.22;;;9.83;100.00
8653;BME280;4364;52.426;9.424;2023-02-17T08:53:33;100880.09;;;9.85;100.00
8653;BME280;4364;52.426;9.424;2023-02-17T08:55:59;100888.53;;;9.89;100.00
8653;BME280;4364;52.426;9.424;2023-02-17T08:58:26;100892.34;;;9.93;100.00
8653;BME280;4364;52.426;9.424;2023-02-17T09:00:52;100889.63;;;9.88;100.00
8653;BME280;4364;52.426;9.424;2023-02-17T09:03:19;100895.59;;;9.85;100.00
8653;BME280;4364;52.426;9.424;2023-02-17T09:05:46;100899.66;;;9.87;100.00
8653;BME280;4364;52.426;9.424;2023-02-17T09:08:15;100896.13;;;9.87;100.00
8653;BME280;4364;52.426;9.424;2023-02-17T09:10:42;100889.91;;;9.86;100.00
8653;BME280;4364;52.426;9.424;2023-02-17T09:13:08;100899.94;;;9.86;100.00
8653;BME280;4364;52.426;9.424;2023-02-17T09:15:35;100907.81;;;9.87;100.00
8653;BME280;4364;52.426;9.424;2023-02-17T09:18:01;100917.84;;;9.87;100.00
8653;BME280;4364;52.426;9.424;2023-02-17T09:20:28;100895.06;;;9.82;100.00
8653;BME280;4364;52.426;9.424;2023-02-17T09:22:54;100902.09;;;9.83;100.00
8653;BME280;4364;52.426;9.424;2023-02-17T09:25:21;100904.53;;;9.85;100.00
8653;BME280;4364;52.426;9.424;2023-02-17T09:27:48;100891.50;;;9.82;100.00
8653;BME280;4364;52.426;9.424;2023-02-17T09:30:15;100901.84;;;9.85;100.00
8653;BME280;4364;52.426;9.424;2023-02-17T09:32:42;100903.75;;;9.90;100.00
8653;BME280;4364;52.426;9.424;2023-02-17T09:35:14;100912.72;;;9.90;100.00
8653;BME280;4364;52.426;9.424;2023-02-17T09:37:41;100913.53;;;9.91;100.00
8653;BME280;4364;52.426;9.424;2023-02-17T09:40:13;100898.06;;;9.91;100.00
8653;BME280;4364;52.426;9.424;2023-02-17T09:42:40;100895.06;;;9.88;100.00
8653;BME280;4364;52.426;9.424;2023-02-17T09:45:15;100896.16;;;9.92;100.00
8653;BME280;4364;52.426;9.424;2023-02-17T09:47:52;100901.03;;;9.85;100.00
8653;BME280;4364;52.426;9.424;2023-02-17T09:50:44;100901.03;;;9.90;100.00
8653;BME280;4364;52.426;9.424;2023-02-17T09:53:30;100893.69;;;9.90;100.00
8653;BME280;4364;52.426;9.424;2023-02-17T09:56:03;100885.53;;;9.90;100.00
8653;BME280;4364;52.426;9.424;2023-02-17T09:58:46;100885.53;;;9.90;100.00
8653;BME280;4364;52.426;9.424;2023-02-17T10:01:21;100887.72;;;9.88;100.00
8653;BME280;4364;52.426;9.424;2023-02-17T10:03:53;100877.41;;;9.95;100.00
8653;BME280;4364;52.426;9.424;2023-02-17T10:09:29;100870.34;;;9.89;100.00
8653;BME280;4364;52.426;9.424;2023-02-17T10:12:18;100876.31;;;9.91;100.00
8653;BME280;4364;52.426;9.424;2023-02-17T10:17:33;100871.44;;;9.93;100.00
8653;BME280;4364;52.426;9.424;2023-02-17T10:20:10;100877.13;;;9.97;100.00
8653;BME280;4364;52.426;9.424;2023-02-17T10:22:38;100881.75;;;9.96;100.00
8653;BME280;4364;52.426;9.424;2023-02-17T10:28:30;100885.53;;;9.90;100.00
8653;BME280;4364;52.426;9.424;2023-02-17T10:31:12;100900.25;;;9.94;100.00
8653;BME280;4364;52.426;9.424;2023-02-17T10:36:26;100864.66;;;10.01;100.00
8653;BME280;4364;52.426;9.424;2023-02-17T10:39:07;100863.03;;;10.05;100.00
8653;BME280;4364;52.426;9.424;2023-02-17T10:41:38;100862.78;;;10.12;100.00
8653;BME280;4364;52.426;9.424;2023-02-17T10:44:16;100862.22;;;10.15;100.00
8653;BME280;4364;52.426;9.424;2023-02-17T10:46:45;100861.16;;;10.16;100.00
8653;BME280;4364;52.426;9.424;2023-02-17T10:49:29;100858.19;;;10.23;100.00
8653;BME280;4364;52.426;9.424;2023-02-17T10:52:04;100854.91;;;10.31;100.00
8653;BME280;4364;52.426;9.424;2023-02-17T10:54:45;100840.53;;;10.35;100.00
8653;BME280;4364;52.426;9.424;2023-02-17T10:57:16;100851.69;;;10.39;100.00
8653;BME280;4364;52.426;9.424;2023-02-17T10:59:46;100832.94;;;10.48;100.00
8653;BME280;4364;52.426;9.424;2023-02-17T11:02:35;100846.53;;;10.48;100.00
8653;BME280;4364;52.426;9.424;2023-02-17T11:05:03;100856.28;;;10.59;100.00
8653;BME280;4364;52.426;9.424;2023-02-17T11:07:35;100842.97;;;10.63;99.81
8653;BME280;4364;52.426;9.424;2023-02-17T11:12:52;100840.22;;;10.78;98.00
8653;BME280;4364;52.426;9.424;2023-02-17T11:15:25;100816.81;;;10.82;97.39
8653;BME280;4364;52.426;9.424;2023-02-17T11:17:52;100796.16;;;10.86;97.15
8653;BME280;4364;52.426;9.424;2023-02-17T11:25:30;100800.72;;;11.06;94.62
8653;BME280;4364;52.426;9.424;2023-02-17T11:28:02;100813.19;;;11.12;94.05
8653;BME280;4364;52.426;9.424;2023-02-17T11:30:31;100814.84;;;11.13;92.82
8653;BME280;4364;52.426;9.424;2023-02-17T11:32:57;100791.41;;;11.12;93.02
8653;BME280;4364;52.426;9.424;2023-02-17T11:35:29;100798.22;;;11.15;92.53
8653;BME280;4364;52.426;9.424;2023-02-17T11:38:17;100790.84;;;11.21;92.16
8653;BME280;4364;52.426;9.424;2023-02-17T11:40:58;100782.13;;;11.24;91.79
8653;BME280;4364;52.426;9.424;2023-02-17T11:43:28;100783.22;;;11.28;91.50
8653;BME280;4364;52.426;9.424;2023-02-17T11:52:14;100753.50;;;11.37;90.90
8653;BME280;4364;52.426;9.424;2023-02-17T11:57:56;100766.56;;;11.35;90.52
8653;BME280;4364;52.426;9.424;2023-02-17T12:00:50;100783.41;;;11.42;90.96
8653;BME280;4364;52.426;9.424;2023-02-17T12:06:21;100774.66;;;11.50;89.67
8653;BME280;4364;52.426;9.424;2023-02-17T12:11:57;100796.69;;;11.54;89.37
8653;BME280;4364;52.426;9.424;2023-02-17T12:15:00;100814.34;;;11.61;88.68
8653;BME280;4364;52.426;9.424;2023-02-17T12:23:05;100823.38;;;11.52;89.45
8653;BME280;4364;52.426;9.424;2023-02-17T12:25:44;100811.16;;;11.44;89.23
8653;BME280;4364;52.426;9.424;2023-02-17T12:31:38;100800.56;;;11.37;89.49
8653;BME280;4364;52.426;9.424;2023-02-17T12:34:41;100804.13;;;11.32;89.86
8653;BME280;4364;52.426;9.424;2023-02-17T12:37:17;100806.00;;;11.37;89.44
8653;BME280;4364;52.426;9.424;2023-02-17T12:40:00;100810.72;;;11.26;90.43
8653;BME280;4364;52.426;9.424;2023-02-17T12:42:37;100807.97;;;11.31;89.63
8653;BME280;4364;52.426;9.424;2023-02-17T12:45:36;100816.38;;;11.35;89.74
8653;BME280;4364;52.426;9.424;2023-02-17T12:48:11;100801.72;;;11.31;90.04
8653;BME280;4364;52.426;9.424;2023-02-17T12:50:53;100801.44;;;11.27;90.66
8653;BME280;4364;52.426;9.424;2023-02-17T12:53:39;100787.53;;;11.29;90.38
8653;BME280;4364;52.426;9.424;2023-02-17T12:56:28;100791.63;;;11.31;90.35
8653;BME280;4364;52.426;9.424;2023-02-17T12:59:10;100794.63;;;11.30;90.58
8653;BME280;4364;52.426;9.424;2023-02-17T13:01:46;100800.09;;;11.25;90.70
8653;BME280;4364;52.426;9.424;2023-02-17T13:04:16;100802.53;;;11.26;90.99
8653;BME280;4364;52.426;9.424;2023-02-17T13:06:50;100815.88;;;11.28;91.13
8653;BME280;4364;52.426;9.424;2023-02-17T13:09:32;100827.88;;;11.22;91.62
8653;BME280;4364;52.426;9.424;2023-02-17T13:14:53;100815.63;;;11.14;92.96
8653;BME280;4364;52.426;9.424;2023-02-17T13:17:35;100820.03;;;11.10;95.19
8653;BME280;4364;52.426;9.424;2023-02-17T13:22:33;100831.25;;;10.88;99.24
8653;BME280;4364;52.426;9.424;2023-02-17T13:24:59;100834.50;;;10.85;100.00
8653;BME280;4364;52.426;9.424;2023-02-17T13:32:58;100852.50;;;10.60;100.00
8653;BME280;4364;52.426;9.424;2023-02-17T13:37:53;100860.66;;;10.60;100.00
8653;BME280;4364;52.426;9.424;2023-02-17T13:42:51;100890.56;;;10.50;100.00
8653;BME280;4364;52.426;9.424;2023-02-17T13:45:25;100878.03;;;10.54;100.00
8653;BME280;4364;52.426;9.424;2023-02-17T13:47:57;100862.56;;;10.54;100.00
8653;BME280;4364;52.426;9.424;2023-02-17T13:50:34;100871.53;;;10.45;100.00
8653;BME280;4364;52.426;9.424;2023-02-17T13:53:18;100857.66;;;10.46;100.00
8653;BME280;4364;52.426;9.424;2023-02-17T13:55:46;100865.56;;;10.43;100.00
8653;BME280;4364;52.426;9.424;2023-02-17T13:58:13;100857.41;;;10.32;100.00
8653;BME280;4364;52.426;9.424;2023-02-17T14:00:41;100875.06;;;10.35;100.00
8653;BME280;4364;52.426;9.424;2023-02-17T14:03:39;100857.94;;;10.34;100.00
8653;BME280;4364;52.426;9.424;2023-02-17T14:06:12;100857.06;;;10.29;100.00
8653;BME280;4364;52.426;9.424;2023-02-17T14:08:41;100871.22;;;10.26;100.00
8653;BME280;4364;52.426;9.424;2023-02-17T14:11:15;100871.75;;;10.23;100.00
8653;BME280;4364;52.426;9.424;2023-02-17T14:13:45;100878.00;;;10.18;100.00
8653;BME280;4364;52.426;9.424;2023-02-17T14:16:29;100882.31;;;10.14;100.00
8653;BME280;4364;52.426;9.424;2023-02-17T14:19:16;100868.75;;;10.14;100.00
8653;BME280;4364;52.426;9.424;2023-02-17T14:22:00;100882.63;;;10.17;100.00
8653;BME280;4364;52.426;9.424;2023-02-17T14:24:35;100879.63;;;10.14;100.00
8653;BME280;4364;52.426;9.424;2023-02-17T14:27:07;100888.34;;;10.21;100.00
8653;BME280;4364;52.426;9.424;2023-02-17T14:29:43;100885.88;;;10.19;100.00
8653;BME280;4364;52.426;9.424;2023-02-17T14:32:48;100882.06;;;10.15;100.00
8653;BME280;4364;52.426;9.424;2023-02-17T14:35:22;100885.88;;;10.14;100.00
8653;BME280;4364;52.426;9.424;2023-02-17T14:37:51;100879.06;;;10.17;100.00
8653;BME280;4364;52.426;9.424;2023-02-17T14:40:23;100876.94;;;10.19;100.00
8653;BME280;4364;52.426;9.424;2023-02-17T14:42:50;100882.63;;;10.17;100.00
8653;BME280;4364;52.426;9.424;2023-02-17T14:45:17;100887.81;;;10.19;100.00
8653;BME280;4364;52.426;9.424;2023-02-17T14:47:45;100884.81;;;10.26;100.00
8653;BME280;4364;52.426;9.424;2023-02-17T14:50:12;100878.53;;;10.25;100.00
8653;BME280;4364;52.426;9.424;2023-02-17T14:52:46;100882.63;;;10.23;100.00
8653;BME280;4364;52.426;9.424;2023-02-17T14:55:36;100870.41;;;10.25;100.00
8653;BME280;4364;52.426;9.424;2023-02-17T14:58:04;100881.53;;;10.29;100.00